Time;durP1;ratioP1;P1;durP2;ratioP2;P2;SDS_P1;SDS_P2;PMS_P1;PMS_P2;Temp;Humidity;BMP_temperature;BMP_pressure;BME280_temperature;BME280_humidity;BME280_pressure;Samples;Min_cycle;Max_cycle;Signal;HPM_P1;HPM_P2
2023/09/01 00:02:25;;;;;;;18.67;11.73;;;23.70;80.90;;;;;;5016086;28;20021;-54
2023/09/01 00:04:51;;;;;;;13.73;11.10;;;23.70;80.80;;;;;;5015632;28;20458;-51
2023/09/01 00:07:16;;;;;;;14.07;10.68;;;23.70;80.90;;;;;;5015947;28;20034;-54
2023/09/01 00:09:42;;;;;;;14.68;10.57;;;23.70;81.10;;;;;;5008351;28;20093;-53
2023/09/01 00:12:07;;;;;;;14.82;10.77;;;23.70;80.90;;;;;;4996092;28;20093;-51
2023/09/01 00:14:33;;;;;;;13.13;10.57;;;23.70;81.10;;;;;;4996723;28;20487;-54
2023/09/01 00:16:59;;;;;;;12.57;10.13;;;23.70;80.90;;;;;;4996431;28;20040;-53
2023/09/01 00:19:24;;;;;;;15.80;10.45;;;23.70;81.10;;;;;;4996102;28;20030;-54
2023/09/01 00:21:50;;;;;;;14.90;10.18;;;23.70;81.20;;;;;;4996101;28;20050;-54
2023/09/01 00:24:16;;;;;;;12.50;10.43;;;23.60;81.00;;;;;;5000193;28;20060;-53
2023/09/01 00:26:42;;;;;;;14.63;10.15;;;23.60;80.90;;;;;;5015349;28;20448;-54
2023/09/01 00:29:07;;;;;;;12.77;10.38;;;23.60;80.90;;;;;;5015676;28;20032;-53
2023/09/01 00:31:34;;;;;;;12.35;10.07;;;23.60;81.70;;;;;;5015784;28;20026;-53
2023/09/01 00:33:59;;;;;;;11.65;9.30;;;23.60;81.00;;;;;;5015642;28;20037;-52
2023/09/01 00:36:25;;;;;;;14.40;9.30;;;23.60;80.90;;;;;;5015616;28;20417;-54
2023/09/01 00:38:50;;;;;;;14.57;9.52;;;23.50;81.00;;;;;;5015049;28;20037;-53
2023/09/01 00:41:16;;;;;;;13.23;9.35;;;23.50;81.10;;;;;;5014807;28;20029;-53
2023/09/01 00:43:42;;;;;;;12.63;9.30;;;23.50;81.20;;;;;;5015052;28;20351;-53
2023/09/01 00:46:07;;;;;;;10.27;8.60;;;23.50;81.30;;;;;;5015609;28;20033;-54
2023/09/01 00:48:33;;;;;;;10.02;9.02;;;23.50;81.50;;;;;;5015326;28;20058;-53
2023/09/01 00:50:59;;;;;;;11.10;8.80;;;23.40;81.70;;;;;;5014929;28;20497;-53
2023/09/01 00:53:26;;;;;;;10.50;8.82;;;23.40;81.40;;;;;;5015032;28;20441;-52
2023/09/01 00:55:57;;;;;;;11.38;9.02;;;23.40;81.70;;;;;;5015282;28;20025;-54
2023/09/01 00:58:23;;;;;;;;;;;23.30;81.80;;;;;;5015465;28;20060;-54
2023/09/01 01:00:49;;;;;;;12.27;8.90;;;23.30;81.80;;;;;;5015264;28;19913;-52
2023/09/01 01:03:14;;;;;;;12.38;8.85;;;23.30;82.20;;;;;;5014886;28;20053;-51
2023/09/01 01:06:10;;;;;;;11.10;8.35;;;23.30;81.90;;;;;;5014665;28;20034;-50
2023/09/01 01:08:47;;;;;;;11.45;8.55;;;23.30;81.80;;;;;;5015055;28;20029;-53
2023/09/01 01:11:36;;;;;;;11.32;8.40;;;23.30;82.30;;;;;;4995349;28;20409;-53
2023/09/01 01:14:07;;;;;;;10.38;8.30;;;23.20;82.40;;;;;;4995429;28;20499;-53
2023/09/01 01:16:34;;;;;;;12.18;8.48;;;23.20;82.60;;;;;;5009755;28;20026;-53
2023/09/01 01:19:10;;;;;;;10.55;7.82;;;23.20;82.20;;;;;;5015011;28;20092;-53
2023/09/01 01:21:38;;;;;;;18.80;8.48;;;23.20;81.70;;;;;;5015359;28;20501;-54
2023/09/01 01:24:05;;;;;;;10.55;8.23;;;23.20;81.10;;;;;;5015247;28;20022;-53
2023/09/01 01:26:30;;;;;;;10.40;8.13;;;23.20;80.70;;;;;;5015203;28;20026;-53
2023/09/01 01:28:56;;;;;;;10.95;7.57;;;23.20;80.60;;;;;;5015426;28;20033;-53
2023/09/01 01:31:22;;;;;;;8.35;7.45;;;23.10;80.70;;;;;;5015407;28;20022;-54
2023/09/01 01:33:55;;;;;;;9.18;7.72;;;23.10;80.70;;;;;;5015127;28;20511;-54
2023/09/01 01:36:43;;;;;;;12.02;7.50;;;23.10;80.70;;;;;;5015313;28;20014;-53
2023/09/01 01:39:20;;;;;;;10.98;7.40;;;23.00;80.90;;;;;;5015157;28;20078;-53
2023/09/01 01:41:53;;;;;;;8.75;7.30;;;23.00;81.00;;;;;;5015494;28;20045;-53
2023/09/01 01:44:25;;;;;;;9.95;7.28;;;23.00;81.60;;;;;;5014982;28;20404;-53
2023/09/01 01:46:51;;;;;;;9.82;7.47;;;23.00;81.90;;;;;;5015174;28;20639;-54
2023/09/01 01:49:18;;;;;;;10.52;7.18;;;23.00;82.20;;;;;;5015217;28;20461;-53
2023/09/01 01:51:44;;;;;;;9.07;7.68;;;23.00;82.60;;;;;;5015527;28;20030;-53
2023/09/01 01:54:10;;;;;;;13.35;8.45;;;23.00;83.10;;;;;;5016067;28;20576;-52
2023/09/01 01:56:35;;;;;;;10.68;7.70;;;22.90;83.50;;;;;;5015135;28;20030;-52
2023/09/01 01:59:04;;;;;;;12.00;7.57;;;22.90;83.60;;;;;;5015520;28;20493;-53
2023/09/01 02:01:31;;;;;;;9.07;7.45;;;22.90;84.00;;;;;;5015941;28;20026;-53
2023/09/01 02:03:57;;;;;;;10.05;7.90;;;22.90;84.50;;;;;;5016026;28;20026;-54
2023/09/01 02:06:22;;;;;;;9.52;7.75;;;22.80;84.80;;;;;;5015900;28;20088;-53
2023/09/01 02:08:48;;;;;;;9.82;7.68;;;22.80;85.10;;;;;;5015395;28;20113;-54
2023/09/01 02:11:14;;;;;;;11.45;8.40;;;22.70;85.20;;;;;;4995481;28;20065;-51
2023/09/01 02:13:40;;;;;;;9.48;7.85;;;22.70;85.40;;;;;;4996763;28;20031;-52
2023/09/01 02:16:05;;;;;;;10.13;7.75;;;22.60;85.50;;;;;;4996975;28;20033;-51
2023/09/01 02:18:32;;;;;;;10.05;7.93;;;22.60;85.50;;;;;;4996929;28;20036;-52
2023/09/01 02:20:58;;;;;;;12.85;7.90;;;22.50;85.80;;;;;;4997510;28;20391;-51
2023/09/01 02:23:24;;;;;;;10.95;7.20;;;22.50;86.30;;;;;;5002299;28;20030;-53
2023/09/01 02:25:50;;;;;;;9.65;7.00;;;22.40;86.70;;;;;;5017090;28;20053;-53
2023/09/01 02:28:15;;;;;;;10.25;7.03;;;22.30;87.40;;;;;;5016400;28;20033;-50
2023/09/01 02:30:41;;;;;;;9.13;6.70;;;22.30;88.10;;;;;;5016502;28;20057;-53
2023/09/01 02:33:07;;;;;;;8.55;6.55;;;22.30;88.30;;;;;;5016862;28;20049;-53
2023/09/01 02:35:40;;;;;;;10.75;7.10;;;22.30;88.80;;;;;;4998852;28;20381;-54
2023/09/01 02:38:05;;;;;;;8.13;6.65;;;22.20;89.30;;;;;;5017123;28;20038;-53
2023/09/01 02:40:31;;;;;;;9.52;6.55;;;22.20;89.50;;;;;;5016416;28;20040;-52
2023/09/01 02:42:57;;;;;;;11.80;6.78;;;22.20;89.80;;;;;;5016371;28;20363;-53
2023/09/01 02:45:22;;;;;;;11.70;7.35;;;22.20;90.00;;;;;;5016325;28;20022;-53
2023/09/01 02:47:48;;;;;;;11.20;7.82;;;22.20;90.10;;;;;;5016166;28;20185;-54
2023/09/01 02:50:14;;;;;;;9.23;7.32;;;22.30;90.30;;;;;;5015807;28;20446;-53
2023/09/01 02:52:39;;;;;;;9.88;7.25;;;22.30;90.60;;;;;;5016235;28;20385;-53
2023/09/01 02:55:06;;;;;;;10.07;7.47;;;22.30;91.00;;;;;;5016432;28;20029;-53
2023/09/01 02:57:32;;;;;;;9.77;7.82;;;22.20;91.40;;;;;;5016208;28;20026;-53
2023/09/01 02:59:58;;;;;;;10.43;8.07;;;22.20;91.60;;;;;;5015827;28;20037;-54
2023/09/01 03:02:24;;;;;;;8.75;7.70;;;22.20;91.90;;;;;;5015435;28;20044;-53
2023/09/01 03:04:50;;;;;;;10.98;8.00;;;22.20;92.40;;;;;;5015458;28;20022;-54
2023/09/01 03:07:16;;;;;;;9.88;7.50;;;22.20;92.80;;;;;;5017031;28;20463;-53
2023/09/01 03:09:42;;;;;;;10.32;7.63;;;22.20;92.90;;;;;;5011373;28;20050;-53
2023/09/01 03:12:08;;;;;;;9.32;7.47;;;22.20;93.10;;;;;;4999969;28;20393;-53
2023/09/01 03:14:34;;;;;;;7.78;6.88;;;22.20;92.80;;;;;;5005662;28;20084;-53
2023/09/01 03:16:59;;;;;;;7.95;7.15;;;22.20;92.80;;;;;;5018999;28;20481;-54
2023/09/01 03:19:25;;;;;;;9.27;7.63;;;22.20;92.90;;;;;;5019060;28;20034;-52
2023/09/01 03:21:50;;;;;;;9.23;7.47;;;22.20;93.30;;;;;;5019547;28;20026;-53
2023/09/01 03:24:16;;;;;;;10.32;7.75;;;22.20;93.40;;;;;;5019438;28;20026;-53
2023/09/01 03:26:42;;;;;;;10.02;8.23;;;22.20;93.30;;;;;;5019455;28;20045;-53
2023/09/01 03:29:07;;;;;;;8.30;6.93;;;22.20;93.60;;;;;;5019419;28;20425;-54
2023/09/01 03:31:33;;;;;;;9.82;8.20;;;22.10;93.70;;;;;;5019085;28;20041;-53
2023/09/01 03:33:59;;;;;;;8.95;7.75;;;22.10;94.00;;;;;;5019604;28;20036;-50
2023/09/01 03:36:25;;;;;;;9.15;8.25;;;22.10;94.50;;;;;;5019549;28;20041;-53
2023/09/01 03:38:54;;;;;;;11.02;8.57;;;22.10;95.10;;;;;;5019417;28;20106;-53
2023/09/01 03:41:20;;;;;;;11.38;9.23;;;22.00;95.00;;;;;;5018934;28;20030;-52
2023/09/01 03:43:46;;;;;;;9.45;8.55;;;22.00;95.10;;;;;;5018573;28;20028;-52
2023/09/01 03:46:11;;;;;;;9.90;8.95;;;22.00;95.00;;;;;;5019129;28;20018;-53
2023/09/01 03:48:37;;;;;;;10.90;9.02;;;22.00;95.30;;;;;;5018413;28;20026;-53
2023/09/01 03:51:06;;;;;;;10.43;9.25;;;22.00;95.70;;;;;;5019100;28;20025;-52
2023/09/01 03:53:32;;;;;;;11.23;10.00;;;22.00;96.00;;;;;;5019414;28;20018;-54
2023/09/01 03:56:09;;;;;;;10.73;9.55;;;22.00;96.10;;;;;;5018942;28;20026;-52
2023/09/01 03:58:36;;;;;;;10.98;9.93;;;21.90;96.20;;;;;;5018957;28;20033;-54
2023/09/01 04:01:05;;;;;;;11.57;10.48;;;22.00;96.40;;;;;;5018183;28;20049;-53
2023/09/01 04:03:31;;;;;;;12.45;10.73;;;22.00;96.40;;;;;;5018339;28;20393;-53
2023/09/01 04:06:00;;;;;;;12.18;10.90;;;22.00;96.50;;;;;;5018151;28;20022;-52
2023/09/01 04:08:25;;;;;;;11.02;9.80;;;21.90;96.50;;;;;;5018212;28;20029;-53
2023/09/01 04:10:51;;;;;;;14.07;11.45;;;22.00;96.80;;;;;;5000455;28;20066;-52
2023/09/01 04:13:17;;;;;;;11.98;10.32;;;22.00;97.50;;;;;;4996561;28;20394;-53
2023/09/01 04:15:42;;;;;;;13.25;11.13;;;22.00;97.20;;;;;;4996587;28;20030;-53
2023/09/01 04:18:08;;;;;;;11.77;10.48;;;22.00;97.00;;;;;;4996884;28;20096;-52
2023/09/01 04:20:34;;;;;;;11.32;10.23;;;22.00;96.90;;;;;;4997214;28;20081;-53
2023/09/01 04:22:59;;;;;;;11.10;10.00;;;22.00;96.50;;;;;;5007413;28;20072;-53
2023/09/01 04:25:25;;;;;;;10.98;9.73;;;22.00;96.90;;;;;;5016468;28;20022;-53
2023/09/01 04:27:51;;;;;;;11.05;9.60;;;22.00;97.10;;;;;;5016899;28;20109;-53
2023/09/01 04:30:16;;;;;;;9.98;8.88;;;22.00;97.20;;;;;;5016689;28;20061;-53
2023/09/01 04:32:44;;;;;;;11.52;9.85;;;22.10;97.10;;;;;;5013858;28;20037;-52
2023/09/01 04:35:10;;;;;;;11.23;9.25;;;22.10;96.80;;;;;;5013751;28;20481;-53
2023/09/01 04:37:36;;;;;;;10.77;9.68;;;22.10;96.80;;;;;;5011849;28;20029;-53
2023/09/01 04:40:06;;;;;;;10.88;9.73;;;22.20;96.70;;;;;;5010304;28;20498;-52
2023/09/01 04:42:32;;;;;;;9.30;8.40;;;22.20;95.90;;;;;;5010279;28;20042;-54
2023/09/01 04:44:58;;;;;;;9.63;8.70;;;22.20;95.50;;;;;;5010319;28;20433;-53
2023/09/01 04:47:24;;;;;;;11.02;8.60;;;22.30;95.40;;;;;;5010320;28;20018;-54
2023/09/01 04:49:50;;;;;;;10.40;8.55;;;22.30;94.90;;;;;;5011014;28;20473;-54
2023/09/01 04:52:15;;;;;;;9.88;8.82;;;22.30;94.60;;;;;;5011877;28;20038;-53
2023/09/01 04:54:41;;;;;;;9.70;8.70;;;22.30;94.50;;;;;;5012995;28;20037;-54
2023/09/01 04:57:07;;;;;;;9.90;8.88;;;22.30;94.30;;;;;;5012989;28;20044;-54
2023/09/01 04:59:32;;;;;;;9.65;8.65;;;22.30;94.10;;;;;;5012821;28;20033;-54
2023/09/01 05:01:59;;;;;;;9.90;9.02;;;22.30;93.90;;;;;;5012931;28;20489;-53
2023/09/01 05:04:25;;;;;;;10.50;9.02;;;22.30;93.70;;;;;;5013084;28;20034;-53
2023/09/01 05:06:51;;;;;;;11.10;9.45;;;22.30;93.60;;;;;;5013147;28;20069;-54
2023/09/01 05:09:17;;;;;;;10.25;9.25;;;22.30;93.90;;;;;;5008393;28;20054;-53
2023/09/01 05:11:42;;;;;;;10.55;9.50;;;22.30;93.90;;;;;;4993383;28;20045;-54
2023/09/01 05:14:08;;;;;;;10.60;9.60;;;22.30;93.60;;;;;;5004684;28;20125;-54
2023/09/01 05:16:34;;;;;;;10.35;9.25;;;22.30;93.70;;;;;;5012957;28;20489;-53
2023/09/01 05:18:59;;;;;;;10.60;9.57;;;22.40;93.70;;;;;;5013201;28;20032;-54
2023/09/01 05:21:25;;;;;;;9.98;9.02;;;22.40;93.60;;;;;;5013100;28;20029;-53
2023/09/01 05:23:50;;;;;;;11.57;9.50;;;22.40;93.80;;;;;;5012299;28;20432;-53
2023/09/01 05:26:16;;;;;;;10.13;8.52;;;22.40;93.80;;;;;;5013378;28;20553;-53
2023/09/01 05:28:42;;;;;;;10.57;9.55;;;22.40;93.70;;;;;;5012714;28;20026;-53
2023/09/01 05:31:07;;;;;;;9.65;8.70;;;22.40;93.50;;;;;;5012167;28;20076;-54
2023/09/01 05:33:33;;;;;;;10.50;9.40;;;22.40;93.40;;;;;;5013017;28;20057;-53
2023/09/01 05:35:59;;;;;;;12.65;9.82;;;22.40;93.50;;;;;;5012743;28;20430;-54
2023/09/01 05:38:24;;;;;;;9.43;8.52;;;22.40;93.20;;;;;;5012892;28;20030;-54
2023/09/01 05:41:01;;;;;;;9.77;8.85;;;22.40;92.90;;;;;;5012682;28;20037;-54
2023/09/01 05:43:27;;;;;;;10.73;9.63;;;22.50;92.90;;;;;;5013060;28;20371;-54
2023/09/01 05:45:53;;;;;;;9.52;8.52;;;22.40;93.00;;;;;;5012965;28;20374;-53
2023/09/01 05:48:18;;;;;;;9.57;8.68;;;22.50;92.80;;;;;;5012033;28;20060;-53
2023/09/01 05:50:44;;;;;;;9.35;8.35;;;22.50;92.60;;;;;;5012485;28;20516;-53
2023/09/01 05:53:10;;;;;;;10.25;9.15;;;22.50;92.60;;;;;;5011902;28;20037;-54
2023/09/01 05:55:36;;;;;;;9.32;8.32;;;22.50;92.50;;;;;;5012177;28;20030;-53
2023/09/01 05:58:02;;;;;;;10.07;9.18;;;22.40;92.50;;;;;;5012545;28;20383;-53
2023/09/01 06:00:29;;;;;;;9.60;8.68;;;22.40;92.70;;;;;;5012550;28;20460;-54
2023/09/01 06:02:58;;;;;;;10.38;9.23;;;22.50;92.90;;;;;;5012125;28;20018;-54
2023/09/01 06:05:24;;;;;;;10.10;9.10;;;22.50;92.90;;;;;;5012067;28;20021;-54
2023/09/01 06:07:50;;;;;;;10.90;9.75;;;22.50;92.80;;;;;;5012132;28;20148;-54
2023/09/01 06:10:15;;;;;;;10.93;9.80;;;22.60;92.50;;;;;;4999856;28;20097;-54
2023/09/01 06:12:41;;;;;;;11.23;10.13;;;22.60;92.60;;;;;;4992853;28;20054;-54
2023/09/01 06:15:07;;;;;;;9.57;8.70;;;22.60;92.60;;;;;;4992675;28;20042;-52
2023/09/01 06:17:33;;;;;;;11.07;9.98;;;22.60;92.30;;;;;;4992797;28;20033;-54
2023/09/01 06:19:59;;;;;;;10.90;9.77;;;22.60;92.20;;;;;;4991116;28;20428;-51
2023/09/01 06:22:25;;;;;;;10.88;9.77;;;22.60;92.30;;;;;;5004901;28;20028;-53
2023/09/01 06:24:51;;;;;;;11.25;10.05;;;22.60;92.40;;;;;;5011163;28;20026;-53
2023/09/01 06:27:16;;;;;;;10.20;9.20;;;22.70;92.40;;;;;;5012310;28;20034;-53
2023/09/01 06:29:42;;;;;;;11.18;10.13;;;22.70;92.10;;;;;;5012118;28;20393;-54
2023/09/01 06:32:11;;;;;;;10.88;9.80;;;22.70;92.00;;;;;;5012429;28;20489;-53
2023/09/01 06:34:40;;;;;;;12.27;10.55;;;22.70;92.00;;;;;;5011717;28;20113;-54
2023/09/01 06:37:06;;;;;;;11.15;9.77;;;22.70;91.90;;;;;;5012127;28;20136;-54
2023/09/01 06:39:32;;;;;;;13.20;11.90;;;22.70;91.80;;;;;;5011914;28;20139;-53
2023/09/01 06:45:20;;;;;;;10.85;9.85;;;22.80;91.70;;;;;;5015472;28;20088;-52
2023/09/01 06:47:46;;;;;;;12.18;9.93;;;22.80;91.70;;;;;;5010728;28;20023;-53
2023/09/01 06:50:12;;;;;;;9.88;8.93;;;22.80;91.60;;;;;;4995934;28;20041;-51
2023/09/01 06:52:38;;;;;;;11.10;9.95;;;22.90;91.60;;;;;;5012758;28;20038;-53
2023/09/01 06:55:04;;;;;;;10.90;9.90;;;23.00;91.70;;;;;;5005948;28;20029;-54
2023/09/01 06:57:29;;;;;;;10.52;9.32;;;23.00;91.50;;;;;;5024677;28;20021;-54
2023/09/01 06:59:55;;;;;;;9.63;8.73;;;23.00;91.40;;;;;;4992384;28;20033;-53
2023/09/01 07:02:20;;;;;;;11.23;9.73;;;23.00;91.10;;;;;;5013465;28;20485;-54
2023/09/01 07:04:46;;;;;;;11.05;9.95;;;23.00;91.00;;;;;;5010171;28;20030;-54
2023/09/01 07:07:12;;;;;;;10.50;9.50;;;23.10;90.80;;;;;;5012704;28;20034;-53
2023/09/01 07:09:37;;;;;;;11.55;10.02;;;23.10;90.90;;;;;;5009877;28;20425;-53
2023/09/01 07:12:03;;;;;;;11.68;10.57;;;23.10;91.00;;;;;;5004101;28;20037;-53
2023/09/01 07:14:29;;;;;;;10.98;9.52;;;23.10;90.90;;;;;;5006898;28;20477;-53
2023/09/01 07:16:55;;;;;;;10.48;9.48;;;23.10;90.60;;;;;;5013408;28;20049;-53
2023/09/01 07:19:20;;;;;;;10.23;9.25;;;23.10;90.60;;;;;;5015615;28;20156;-52
2023/09/01 07:21:46;;;;;;;10.57;9.55;;;23.20;90.60;;;;;;5007706;28;20083;-54
2023/09/01 07:24:12;;;;;;;11.00;8.95;;;23.20;90.40;;;;;;5009918;28;20076;-54
2023/09/01 07:26:38;;;;;;;9.35;8.45;;;23.30;90.40;;;;;;5014874;28;20034;-54
2023/09/01 07:29:04;;;;;;;10.70;9.65;;;23.30;90.20;;;;;;5014512;28;20525;-53
2023/09/01 07:31:29;;;;;;;10.13;9.13;;;23.30;90.40;;;;;;5003182;28;20050;-53
2023/09/01 07:33:55;;;;;;;11.07;9.82;;;23.30;90.40;;;;;;5006252;28;20021;-54
2023/09/01 07:36:21;;;;;;;10.27;9.23;;;23.40;90.30;;;;;;5003204;28;20049;-54
2023/09/01 07:38:48;;;;;;;11.13;9.50;;;23.40;90.00;;;;;;5004357;28;20076;-54
2023/09/01 07:41:13;;;;;;;11.48;9.38;;;23.50;90.10;;;;;;5009178;28;20034;-50
2023/09/01 07:43:39;;;;;;;13.52;9.65;;;23.50;89.80;;;;;;5012858;28;20033;-54
2023/09/01 07:46:05;;;;;;;10.18;9.25;;;23.50;89.70;;;;;;5011591;28;20113;-54
2023/09/01 07:48:30;;;;;;;10.25;9.20;;;23.60;89.70;;;;;;5012620;28;20362;-54
2023/09/01 07:50:56;;;;;;;10.35;9.27;;;23.60;89.60;;;;;;5010201;28;20493;-54
2023/09/01 07:53:22;;;;;;;10.07;9.07;;;23.70;89.50;;;;;;5009870;28;20083;-53
2023/09/01 07:55:47;;;;;;;11.05;8.85;;;23.80;89.40;;;;;;5011562;28;20068;-52
2023/09/01 07:58:14;;;;;;;10.35;9.35;;;23.80;89.40;;;;;;5009349;28;20033;-54
2023/09/01 08:00:40;;;;;;;9.65;8.63;;;23.90;89.90;;;;;;5008140;28;20038;-54
2023/09/01 08:03:10;;;;;;;12.13;9.50;;;24.00;89.40;;;;;;5005360;28;20466;-54
2023/09/01 08:05:37;;;;;;;10.07;9.07;;;24.10;88.10;;;;;;5007253;28;20552;-54
2023/09/01 08:08:03;;;;;;;10.25;9.25;;;24.20;87.90;;;;;;5012052;28;20021;-53
2023/09/01 08:10:29;;;;;;;8.82;7.93;;;24.20;87.70;;;;;;5005158;28;20528;-51
2023/09/01 08:12:55;;;;;;;9.13;8.23;;;24.30;87.20;;;;;;5008243;28;20169;-52
2023/09/01 08:15:20;;;;;;;9.68;8.68;;;24.30;86.40;;;;;;5014009;28;20061;-53
2023/09/01 08:17:46;;;;;;;10.25;9.23;;;24.40;86.20;;;;;;5012066;28;20111;-54
2023/09/01 08:20:12;;;;;;;9.05;8.20;;;24.40;86.00;;;;;;5005384;28;20045;-54
2023/09/01 08:22:37;;;;;;;10.13;9.07;;;24.40;86.00;;;;;;5007437;28;20033;-54
2023/09/01 08:25:03;;;;;;;10.13;9.15;;;24.30;85.80;;;;;;5010958;28;20386;-53
2023/09/01 08:27:29;;;;;;;10.75;8.82;;;24.30;86.10;;;;;;5002934;28;20026;-51
2023/09/01 08:29:55;;;;;;;9.70;8.35;;;24.40;86.10;;;;;;5008274;28;20045;-53
2023/09/01 08:32:21;;;;;;;9.73;8.82;;;24.30;85.90;;;;;;5004496;28;20124;-54
2023/09/01 08:34:47;;;;;;;9.60;8.65;;;24.30;85.80;;;;;;5012148;28;20133;-53
2023/09/01 08:37:15;;;;;;;10.02;8.23;;;24.30;86.30;;;;;;5008028;28;20041;-53
2023/09/01 08:39:42;;;;;;;10.00;9.05;;;24.30;85.70;;;;;;5009069;28;20045;-53
2023/09/01 08:42:09;;;;;;;10.52;8.50;;;24.30;85.70;;;;;;5017623;28;20362;-49
2023/09/01 08:44:38;;;;;;;9.93;8.90;;;24.40;85.50;;;;;;5009294;28;20030;-54
2023/09/01 08:47:04;;;;;;;9.52;8.55;;;24.40;85.20;;;;;;5014410;28;20061;-53
2023/09/01 08:49:29;;;;;;;9.63;8.65;;;24.40;85.20;;;;;;5011199;28;20025;-54
2023/09/01 08:51:57;;;;;;;9.38;8.05;;;24.40;85.20;;;;;;5010199;28;20042;-54
2023/09/01 08:54:23;;;;;;;9.85;8.95;;;24.40;85.00;;;;;;5007020;28;20026;-54
2023/09/01 08:56:50;;;;;;;9.07;8.18;;;24.30;85.00;;;;;;5002785;28;20409;-52
2023/09/01 08:59:15;;;;;;;9.55;8.55;;;24.30;85.10;;;;;;5008501;28;20026;-54
2023/09/01 09:01:41;;;;;;;9.68;8.68;;;24.30;85.30;;;;;;5010635;28;20481;-54
2023/09/01 09:04:07;;;;;;;9.02;8.13;;;24.30;84.80;;;;;;5005042;28;20029;-53
2023/09/01 09:06:34;;;;;;;9.52;8.40;;;24.40;84.80;;;;;;5014436;28;20525;-54
2023/09/01 09:09:11;;;;;;;9.57;8.68;;;24.40;84.60;;;;;;5014893;28;20473;-54
2023/09/01 09:11:53;;;;;;;9.48;8.48;;;24.40;84.00;;;;;;5013236;28;20105;-53
2023/09/01 09:14:18;;;;;;;8.57;7.70;;;24.40;83.90;;;;;;5019404;28;20091;-52
2023/09/01 09:16:55;;;;;;;9.55;8.63;;;24.40;83.60;;;;;;5009465;28;20116;-54
2023/09/01 09:19:22;;;;;;;8.88;7.97;;;24.40;83.30;;;;;;5006956;28;20030;-53
2023/09/01 09:21:48;;;;;;;9.18;7.90;;;24.40;83.30;;;;;;5013108;28;20056;-54
2023/09/01 09:24:14;;;;;;;10.63;7.65;;;24.30;83.40;;;;;;5018816;28;20079;-52
2023/09/01 09:26:40;;;;;;;9.82;8.48;;;24.30;83.40;;;;;;5019424;28;20152;-52
2023/09/01 09:29:11;;;;;;;8.85;7.90;;;24.30;83.70;;;;;;5021572;28;20026;-54
2023/09/01 09:31:40;;;;;;;8.88;7.70;;;24.30;83.90;;;;;;5005650;28;20048;-54
2023/09/01 09:34:14;;;;;;;8.52;7.72;;;24.30;83.70;;;;;;5009879;28;20018;-54
2023/09/01 09:36:39;;;;;;;9.18;8.20;;;24.20;83.70;;;;;;5011835;28;20365;-54
2023/09/01 09:39:09;;;;;;;9.52;8.60;;;24.20;84.20;;;;;;5005150;28;20031;-54
2023/09/01 09:41:48;;;;;;;8.52;7.68;;;24.20;84.80;;;;;;5009856;28;20030;-54
2023/09/01 09:44:36;;;;;;;8.60;7.80;;;24.10;83.80;;;;;;5009625;28;20079;-54
2023/09/01 09:47:09;;;;;;;8.68;7.47;;;24.10;83.80;;;;;;5004865;28;20038;-53
2023/09/01 09:49:37;;;;;;;9.35;7.95;;;24.10;84.50;;;;;;5009376;28;20049;-54
2023/09/01 09:52:04;;;;;;;9.05;7.88;;;24.00;84.40;;;;;;5014206;28;20109;-52
2023/09/01 09:54:31;;;;;;;9.88;8.40;;;24.00;84.30;;;;;;5013686;28;20064;-54
2023/09/01 09:57:00;;;;;;;8.45;7.20;;;24.00;84.40;;;;;;5010725;28;20053;-54
2023/09/01 09:59:42;;;;;;;8.77;7.88;;;24.00;84.10;;;;;;5016148;28;20385;-54
2023/09/01 10:02:22;;;;;;;9.93;8.25;;;24.00;83.90;;;;;;5009366;28;20027;-54
2023/09/01 10:04:48;;;;;;;8.60;7.70;;;24.00;84.20;;;;;;5013109;28;20056;-54
2023/09/01 10:07:15;;;;;;;8.60;7.70;;;24.00;83.70;;;;;;5017820;28;20545;-54
2023/09/01 10:09:43;;;;;;;8.32;7.50;;;24.00;83.50;;;;;;5009002;28;21569;-53
2023/09/01 10:12:09;;;;;;;8.90;8.00;;;24.00;83.10;;;;;;5009998;28;20034;-54
2023/09/01 10:14:39;;;;;;;7.93;7.13;;;24.00;83.80;;;;;;5011001;28;20454;-54
2023/09/01 10:17:05;;;;;;;9.13;8.23;;;24.00;82.70;;;;;;5017626;28;20026;-54
2023/09/01 10:19:30;;;;;;;8.27;7.45;;;24.00;82.90;;;;;;5015456;28;20474;-53
2023/09/01 10:21:57;;;;;;;8.85;7.95;;;24.00;83.20;;;;;;5008931;28;20021;-54
2023/09/01 10:24:22;;;;;;;8.95;8.05;;;24.00;83.40;;;;;;5003264;28;20030;-55
2023/09/01 10:27:08;;;;;;;9.02;8.10;;;24.00;84.90;;;;;;5014645;28;20470;-54
2023/09/01 10:29:34;;;;;;;8.82;7.90;;;24.00;84.60;;;;;;5013854;28;20025;-53
2023/09/01 10:32:17;;;;;;;8.07;7.38;;;24.00;84.90;;;;;;5016711;28;20026;-52
2023/09/01 10:34:53;;;;;;;8.38;7.38;;;24.10;84.40;;;;;;5006108;28;20071;-54
2023/09/01 10:37:30;;;;;;;9.68;7.38;;;24.10;84.30;;;;;;5013929;28;20092;-54
2023/09/01 10:39:57;;;;;;;7.95;7.18;;;24.10;84.20;;;;;;5001963;28;20034;-54
2023/09/01 10:42:48;;;;;;;7.35;6.65;;;24.10;84.20;;;;;;5009078;28;20071;-54
2023/09/01 10:45:14;;;;;;;7.25;6.50;;;24.10;83.60;;;;;;5017731;28;20076;-52
2023/09/01 10:47:46;;;;;;;6.72;6.00;;;24.10;83.20;;;;;;5015278;28;20041;-54
2023/09/01 10:50:12;;;;;;;6.97;6.28;;;24.10;82.90;;;;;;5017274;28;20029;-55
2023/09/01 10:52:39;;;;;;;6.60;5.90;;;24.10;82.20;;;;;;5015633;28;20013;-53
2023/09/01 10:55:06;;;;;;;5.95;5.18;;;24.10;82.00;;;;;;5016095;28;20033;-54
2023/09/01 10:58:07;;;;;;;6.57;5.97;;;24.10;81.90;;;;;;5013479;28;20018;-53
2023/09/01 11:00:34;;;;;;;7.32;5.72;;;24.00;81.50;;;;;;5008123;28;20037;-54
2023/09/01 11:03:31;;;;;;;6.35;5.50;;;24.00;81.70;;;;;;5014666;28;20121;-55
2023/09/01 11:06:01;;;;;;;6.70;6.00;;;24.00;81.70;;;;;;5013659;28;20062;-54
2023/09/01 11:08:27;;;;;;;6.75;6.05;;;24.00;82.00;;;;;;5010952;28;20028;-54
2023/09/01 11:10:55;;;;;;;7.85;6.03;;;24.00;81.80;;;;;;5013839;28;20153;-54
2023/09/01 11:13:24;;;;;;;6.88;6.18;;;24.00;82.00;;;;;;5015302;28;20089;-54
2023/09/01 11:15:51;;;;;;;6.72;6.03;;;24.00;81.90;;;;;;5007194;28;20034;-54
2023/09/01 11:18:21;;;;;;;6.85;5.70;;;24.00;81.70;;;;;;5020070;28;20034;-53
2023/09/01 11:20:48;;;;;;;7.68;6.88;;;24.10;81.90;;;;;;5014346;28;20018;-53
2023/09/01 11:23:20;;;;;;;7.40;6.70;;;24.00;81.80;;;;;;5010549;28;20026;-54
2023/09/01 11:25:58;;;;;;;7.93;7.22;;;24.10;82.20;;;;;;5014160;28;20034;-53
2023/09/01 11:28:26;;;;;;;8.07;7.38;;;24.10;82.30;;;;;;5007375;28;20124;-53
2023/09/01 11:30:56;;;;;;;8.63;7.65;;;24.10;82.20;;;;;;5010256;28;20125;-54
2023/09/01 11:33:23;;;;;;;9.07;8.13;;;24.10;82.10;;;;;;5013274;28;20025;-54
2023/09/01 11:35:49;;;;;;;8.80;7.90;;;24.10;82.30;;;;;;5013528;28;20481;-54
2023/09/01 11:38:19;;;;;;;8.63;7.72;;;24.10;82.60;;;;;;5006689;28;20474;-53
2023/09/01 11:40:47;;;;;;;8.20;7.15;;;24.10;82.50;;;;;;5015690;28;20088;-54
2023/09/01 11:43:13;;;;;;;7.75;7.05;;;24.10;82.70;;;;;;5012508;28;20034;-54
2023/09/01 11:45:47;;;;;;;8.07;7.28;;;24.10;82.80;;;;;;5019935;28;20026;-54
2023/09/01 11:48:13;;;;;;;8.27;7.47;;;24.10;82.80;;;;;;5017116;28;20457;-55
2023/09/01 11:50:44;;;;;;;8.60;7.80;;;24.10;82.70;;;;;;5029146;28;20481;-54
2023/09/01 11:53:09;;;;;;;9.23;8.35;;;24.20;82.70;;;;;;5007787;28;20085;-53
2023/09/01 11:55:43;;;;;;;9.15;8.25;;;24.20;82.70;;;;;;5019773;28;20038;-54
2023/09/01 11:58:08;;;;;;;8.57;7.78;;;24.20;82.60;;;;;;5016092;28;20100;-54
2023/09/01 12:00:36;;;;;;;9.35;8.45;;;24.20;82.80;;;;;;5016105;28;20030;-54
2023/09/01 12:03:05;;;;;;;9.27;8.38;;;24.20;82.70;;;;;;5013503;28;20018;-55
2023/09/01 12:05:36;;;;;;;10.30;9.32;;;24.20;82.60;;;;;;5013623;28;20022;-54
2023/09/01 12:08:03;;;;;;;11.60;9.02;;;24.20;82.40;;;;;;5011789;28;20026;-54
2023/09/01 12:10:30;;;;;;;10.23;9.30;;;24.20;82.50;;;;;;5006068;28;20042;-54
2023/09/01 12:13:07;;;;;;;11.02;9.95;;;24.30;82.30;;;;;;5013995;28;20405;-54
2023/09/01 12:15:52;;;;;;;10.75;9.68;;;24.30;81.70;;;;;;5015465;28;20018;-54
2023/09/01 12:18:38;;;;;;;10.80;9.80;;;24.30;81.60;;;;;;5014476;28;20437;-54
2023/09/01 12:21:08;;;;;;;10.63;9.52;;;24.30;81.70;;;;;;5017037;28;20180;-54
2023/09/01 12:23:39;;;;;;;9.63;8.73;;;24.30;81.30;;;;;;5016209;28;20036;-54
2023/09/01 12:26:05;;;;;;;10.85;9.85;;;24.30;80.90;;;;;;5014520;28;20026;-55
2023/09/01 12:28:33;;;;;;;9.77;8.77;;;24.30;80.80;;;;;;5015467;28;20143;-54
2023/09/01 12:31:01;;;;;;;9.68;8.68;;;24.30;80.70;;;;;;5011818;28;20121;-53
2023/09/01 12:33:27;;;;;;;10.00;8.95;;;24.30;80.50;;;;;;5012855;28;20032;-54
2023/09/01 12:35:53;;;;;;;10.35;9.23;;;24.40;80.60;;;;;;5006331;28;20497;-55
2023/09/01 12:38:19;;;;;;;9.57;8.68;;;24.40;80.40;;;;;;5013520;28;20026;-54
2023/09/01 12:40:46;;;;;;;8.43;7.60;;;24.40;80.40;;;;;;5010845;28;20053;-54
2023/09/01 12:43:12;;;;;;;9.50;8.50;;;24.40;80.40;;;;;;5019316;28;20032;-54
2023/09/01 12:45:38;;;;;;;8.73;7.82;;;24.40;80.20;;;;;;5013072;28;20038;-54
2023/09/01 12:48:03;;;;;;;9.05;8.15;;;24.50;80.30;;;;;;5017136;28;20026;-54